createdAt,value
2019-05-26T00:01:27.557Z,63.20
2019-05-26T00:03:56.303Z,63.14
2019-05-26T00:06:25.099Z,63.14
2019-05-26T00:08:53.565Z,63.14
2019-05-26T00:11:22.063Z,63.21
2019-05-26T00:13:50.531Z,63.27
2019-05-26T00:16:19.015Z,63.37
2019-05-26T00:18:47.485Z,63.46
2019-05-26T00:21:15.959Z,63.51
2019-05-26T00:23:44.420Z,63.56
2019-05-26T00:26:13.159Z,63.65
2019-05-26T00:28:41.618Z,63.76
2019-05-26T00:31:10.371Z,63.70
2019-05-26T00:33:38.849Z,63.71
2019-05-26T00:36:07.321Z,63.72
2019-05-26T00:38:35.800Z,63.86
2019-05-26T00:41:04.500Z,64.00
2019-05-26T00:43:32.968Z,64.03
2019-05-26T00:46:01.438Z,64.09
2019-05-26T00:48:29.912Z,64.25
2019-05-26T00:50:58.699Z,64.13
2019-05-26T00:53:27.464Z,64.07
2019-05-26T00:55:55.928Z,64.19
2019-05-26T00:58:24.423Z,64.26
2019-05-26T01:00:53.214Z,64.36
2019-05-26T01:03:21.681Z,64.48
2019-05-26T01:05:50.158Z,64.47
2019-05-26T01:08:18.643Z,64.48
2019-05-26T01:10:47.123Z,64.52
2019-05-26T01:13:15.598Z,64.56
2019-05-26T01:15:44.090Z,64.65
2019-05-26T01:18:12.547Z,64.78
2019-05-26T01:20:41.287Z,64.87
2019-05-26T01:23:09.756Z,64.86
2019-05-26T01:25:38.212Z,64.76
2019-05-26T01:28:06.664Z,64.75
2019-05-26T01:30:36.781Z,64.73
2019-05-26T01:33:05.498Z,64.87
2019-05-26T01:35:33.996Z,65.02
2019-05-26T01:38:02.627Z,64.95
2019-05-26T01:40:38.551Z,64.86
2019-05-26T01:43:07.169Z,64.90
2019-05-26T01:45:35.652Z,64.80
2019-05-26T01:48:04.306Z,64.89
2019-05-26T01:50:32.815Z,64.92
2019-05-26T01:53:01.266Z,64.92
2019-05-26T01:55:30.038Z,64.94
2019-05-26T01:57:58.474Z,64.84
2019-05-26T02:00:26.972Z,64.84
2019-05-26T02:02:55.444Z,64.89
2019-05-26T02:05:23.922Z,64.99
2019-05-26T02:07:52.407Z,64.93
2019-05-26T02:10:20.866Z,65.01
2019-05-26T02:12:49.328Z,64.93
2019-05-26T02:15:17.811Z,64.95
2019-05-26T02:17:46.295Z,65.01
2019-05-26T02:20:15.057Z,65.07
2019-05-26T02:22:43.511Z,65.02
2019-05-26T02:25:12.085Z,65.10
2019-05-26T02:27:40.568Z,65.16
2019-05-26T02:30:09.425Z,65.13
2019-05-26T02:32:37.872Z,65.13
2019-05-26T02:35:07.411Z,65.10
2019-05-26T02:37:35.930Z,65.13
2019-05-26T02:40:05.347Z,65.19
2019-05-26T02:42:33.857Z,65.17
2019-05-26T02:45:02.306Z,65.09
2019-05-26T02:47:30.772Z,65.14
2019-05-26T02:49:59.224Z,65.14
2019-05-26T02:52:27.692Z,65.11
2019-05-26T02:54:56.261Z,65.08
2019-05-26T02:57:24.726Z,65.16
2019-05-26T02:59:53.184Z,65.23
2019-05-26T03:02:21.729Z,65.25
2019-05-26T03:04:50.470Z,65.17
2019-05-26T03:07:19.272Z,65.20
2019-05-26T03:09:47.746Z,65.20
2019-05-26T03:12:16.523Z,65.27
2019-05-26T03:14:44.983Z,65.13
2019-05-26T03:17:13.442Z,65.05
2019-05-26T03:19:41.954Z,65.15
2019-05-26T03:22:10.768Z,65.17
2019-05-26T03:24:39.221Z,65.06
2019-05-26T03:27:07.677Z,65.27
2019-05-26T03:29:36.172Z,65.22
2019-05-26T03:32:04.736Z,65.22
2019-05-26T03:34:33.204Z,65.32
2019-05-26T03:37:01.754Z,65.25
2019-05-26T03:39:43.362Z,65.16
2019-05-26T03:42:00.389Z,65.22
2019-05-26T03:44:28.879Z,65.21
2019-05-26T03:46:57.366Z,65.29
2019-05-26T03:49:25.818Z,65.23
2019-05-26T03:51:54.283Z,65.47
2019-05-26T03:54:22.806Z,65.76
2019-05-26T03:56:51.258Z,65.72
2019-05-26T03:59:19.739Z,65.58
2019-05-26T04:01:48.197Z,65.65
2019-05-26T04:04:16.670Z,65.52
2019-05-26T04:06:45.144Z,65.61
2019-05-26T04:09:13.830Z,65.75
2019-05-26T04:11:42.282Z,65.66
2019-05-26T04:14:10.763Z,65.81
2019-05-26T04:16:39.237Z,65.81
2019-05-26T04:19:07.697Z,66.02
2019-05-26T04:21:36.792Z,66.05
2019-05-26T04:24:05.269Z,65.78
2019-05-26T04:26:33.763Z,65.76
2019-05-26T04:29:02.536Z,65.64
2019-05-26T04:31:30.987Z,65.87
2019-05-26T04:33:59.447Z,65.76
2019-05-26T04:36:27.916Z,65.86
2019-05-26T04:38:56.383Z,65.68
2019-05-26T04:41:24.879Z,65.65
2019-05-26T04:43:53.341Z,65.55
2019-05-26T04:46:21.819Z,65.54
2019-05-26T04:48:50.290Z,65.64
2019-05-26T04:51:18.773Z,65.75
2019-05-26T04:53:47.239Z,65.46
2019-05-26T04:56:15.740Z,65.36
2019-05-26T04:58:44.267Z,65.26
2019-05-26T05:01:12.746Z,65.21
2019-05-26T05:03:41.293Z,65.20
2019-05-26T05:06:09.749Z,65.14
2019-05-26T05:08:40.407Z,65.07
2019-05-26T05:11:08.458Z,64.99
2019-05-26T05:13:36.918Z,64.92
2019-05-26T05:16:05.710Z,64.96
2019-05-26T05:18:34.154Z,65.09
2019-05-26T05:21:02.639Z,64.96
2019-05-26T05:23:31.449Z,64.94
2019-05-26T05:25:59.886Z,64.97
2019-05-26T05:28:28.427Z,64.87
2019-05-26T05:30:56.916Z,64.76
2019-05-26T05:33:25.359Z,64.71
2019-05-26T05:35:53.869Z,64.67
2019-05-26T05:38:22.410Z,64.58
2019-05-26T05:40:59.335Z,64.55
2019-05-26T05:43:21.098Z,64.54
2019-05-26T05:45:49.579Z,64.52
2019-05-26T05:48:18.063Z,64.46
2019-05-26T05:50:46.809Z,64.50
2019-05-26T05:53:15.300Z,64.52
2019-05-26T05:55:43.776Z,64.48
2019-05-26T05:58:12.219Z,64.55
2019-05-26T06:00:41.032Z,64.60
2019-05-26T06:03:09.497Z,64.74
2019-05-26T06:05:37.976Z,64.80
2019-05-26T06:08:06.436Z,64.79
2019-05-26T06:10:34.894Z,64.75
2019-05-26T06:13:03.931Z,64.81
2019-05-26T06:15:32.416Z,64.85
2019-05-26T06:18:00.875Z,65.06
2019-05-26T06:20:29.371Z,64.99
2019-05-26T06:22:57.807Z,64.88
2019-05-26T06:25:27.088Z,64.91
2019-05-26T06:27:55.666Z,64.77
2019-05-26T06:30:24.132Z,64.74
2019-05-26T06:32:52.574Z,64.74
2019-05-26T06:35:21.125Z,64.74
2019-05-26T06:37:49.595Z,64.86
2019-05-26T06:40:18.754Z,64.95
2019-05-26T06:42:47.300Z,64.91
2019-05-26T06:45:15.772Z,64.79
2019-05-26T06:47:44.247Z,64.88
2019-05-26T06:50:13.014Z,64.74
2019-05-26T06:52:41.779Z,64.91
2019-05-26T06:55:10.265Z,65.00
2019-05-26T06:57:38.740Z,64.92
2019-05-26T07:00:07.218Z,64.97
2019-05-26T07:02:35.769Z,64.80
2019-05-26T07:05:04.677Z,64.75
2019-05-26T07:07:33.148Z,64.77
2019-05-26T07:10:01.653Z,64.72
2019-05-26T07:12:30.116Z,64.59
2019-05-26T07:14:58.611Z,64.67
2019-05-26T07:17:27.095Z,64.61
2019-05-26T07:19:55.571Z,64.56
2019-05-26T07:22:24.053Z,64.67
2019-05-26T07:24:52.949Z,64.70
2019-05-26T07:27:21.409Z,64.76
2019-05-26T07:29:49.875Z,64.78
2019-05-26T07:32:18.430Z,64.75
2019-05-26T07:34:46.934Z,64.79
2019-05-26T07:37:15.383Z,64.79
2019-05-26T07:39:43.863Z,64.94
2019-05-26T07:42:12.356Z,64.72
2019-05-26T07:44:40.848Z,64.79
2019-05-26T07:47:09.324Z,64.80
2019-05-26T07:49:37.781Z,64.79
2019-05-26T07:52:06.268Z,64.87
2019-05-26T07:54:34.722Z,64.90
2019-05-26T07:57:03.188Z,64.86
2019-05-26T07:59:31.690Z,64.91
2019-05-26T08:02:00.141Z,64.75
2019-05-26T08:04:28.874Z,64.69
2019-05-26T08:06:57.608Z,64.74
2019-05-26T08:09:26.111Z,64.69
2019-05-26T08:11:54.590Z,64.51
2019-05-26T08:14:23.105Z,64.40
2019-05-26T08:16:51.611Z,64.29
2019-05-26T08:19:20.044Z,64.19
2019-05-26T08:21:48.544Z,64.02
2019-05-26T08:24:17.026Z,63.90
2019-05-26T08:26:45.486Z,63.71
2019-05-26T08:29:13.935Z,63.91
2019-05-26T08:31:42.517Z,63.96
2019-05-26T08:34:11.242Z,63.99
2019-05-26T08:36:39.737Z,64.02
2019-05-26T08:39:08.737Z,64.01
2019-05-26T08:41:37.212Z,63.98
2019-05-26T08:44:06.212Z,64.05
2019-05-26T08:46:34.692Z,64.09
2019-05-26T08:49:03.492Z,64.14
2019-05-26T08:51:31.989Z,64.01
2019-05-26T08:54:00.531Z,63.99
2019-05-26T08:56:29.010Z,64.09
2019-05-26T08:58:57.809Z,64.14
2019-05-26T09:01:26.285Z,64.14
2019-05-26T09:03:54.752Z,64.15
2019-05-26T09:06:23.243Z,64.06
2019-05-26T09:08:51.729Z,64.11
2019-05-26T09:11:20.208Z,64.33
2019-05-26T09:13:48.676Z,64.68
2019-05-26T09:16:17.159Z,64.58
2019-05-26T09:18:45.663Z,64.74
2019-05-26T09:21:14.152Z,64.80
2019-05-26T09:23:42.641Z,64.92
2019-05-26T09:26:11.133Z,64.89
2019-05-26T09:28:39.608Z,65.12
2019-05-26T09:31:08.075Z,65.35
2019-05-26T09:33:36.574Z,65.28
2019-05-26T09:36:05.062Z,65.55
2019-05-26T09:38:33.869Z,65.75
2019-05-26T09:41:02.400Z,66.01
2019-05-26T09:43:30.875Z,65.89
2019-05-26T09:45:59.348Z,65.85
2019-05-26T09:48:27.823Z,65.75
2019-05-26T09:50:56.312Z,65.57
2019-05-26T09:53:24.796Z,65.63
2019-05-26T09:55:53.265Z,65.83
2019-05-26T09:58:21.747Z,65.89
2019-05-26T10:00:50.245Z,66.03
2019-05-26T10:03:18.772Z,65.86
2019-05-26T10:05:47.226Z,66.24
2019-05-26T10:08:15.690Z,66.35
2019-05-26T10:10:44.194Z,66.74
2019-05-26T10:13:12.681Z,66.64
2019-05-26T10:15:41.209Z,66.88
2019-05-26T10:18:09.678Z,67.79
2019-05-26T10:20:38.154Z,68.72
2019-05-26T10:23:06.651Z,69.57
2019-05-26T10:25:35.141Z,72.52
2019-05-26T10:28:03.962Z,70.19
2019-05-26T10:30:32.489Z,70.17
2019-05-26T10:33:01.003Z,69.18
2019-05-26T10:35:29.535Z,69.69
2019-05-26T10:37:58.002Z,70.63
2019-05-26T10:40:26.487Z,70.27
2019-05-26T10:42:54.974Z,70.63
2019-05-26T10:45:23.439Z,70.17
2019-05-26T10:47:51.920Z,70.09
2019-05-26T10:50:20.421Z,69.97
2019-05-26T10:52:49.111Z,69.99
2019-05-26T10:55:17.617Z,69.67
2019-05-26T10:57:46.101Z,69.88
2019-05-26T11:00:14.600Z,69.96
2019-05-26T11:02:43.070Z,70.44
2019-05-26T11:05:11.567Z,70.49
2019-05-26T11:07:40.053Z,71.01
2019-05-26T11:10:08.524Z,72.21
2019-05-26T11:12:37.010Z,72.90
2019-05-26T11:15:06.073Z,72.62
2019-05-26T11:17:35.206Z,73.87
2019-05-26T11:20:04.555Z,72.97
2019-05-26T11:22:33.038Z,72.77
2019-05-26T11:25:01.505Z,73.44
2019-05-26T11:27:29.968Z,74.08
2019-05-26T11:29:58.439Z,73.73
2019-05-26T11:32:26.974Z,73.32
2019-05-26T11:35:01.587Z,72.72
2019-05-26T11:37:25.902Z,73.80
2019-05-26T11:39:54.694Z,73.50
2019-05-26T11:42:23.217Z,72.35
2019-05-26T11:44:51.650Z,73.29
2019-05-26T11:47:20.203Z,72.85
2019-05-26T11:49:48.683Z,72.41
2019-05-26T11:52:20.248Z,72.83
2019-05-26T11:54:47.605Z,72.71
2019-05-26T11:57:16.525Z,72.69
2019-05-26T11:59:47.378Z,72.53
2019-05-26T12:02:15.254Z,72.45
2019-05-26T12:04:43.945Z,72.19
2019-05-26T12:07:12.455Z,72.43
2019-05-26T12:09:40.955Z,72.24
2019-05-26T12:12:09.435Z,72.34
2019-05-26T12:14:37.927Z,72.27
2019-05-26T12:17:06.641Z,72.31
2019-05-26T12:19:35.120Z,72.53
2019-05-26T12:22:03.620Z,72.33
2019-05-26T12:24:32.069Z,72.29
2019-05-26T12:27:00.562Z,72.38
2019-05-26T12:29:29.285Z,71.62
2019-05-26T12:31:57.791Z,71.29
2019-05-26T12:34:26.263Z,70.86
2019-05-26T12:36:54.972Z,70.76
2019-05-26T12:39:23.459Z,70.59
2019-05-26T12:41:51.949Z,70.37
2019-05-26T12:44:20.479Z,70.26
2019-05-26T12:46:48.895Z,70.27
2019-05-26T12:49:17.429Z,69.51
2019-05-26T12:51:45.914Z,69.36
2019-05-26T12:54:14.399Z,69.12
2019-05-26T12:56:42.905Z,68.87
2019-05-26T12:59:11.397Z,68.92
2019-05-26T13:01:39.879Z,68.93
2019-05-26T13:04:08.363Z,69.19
2019-05-26T13:06:36.868Z,69.26
2019-05-26T13:09:07.957Z,68.83
2019-05-26T13:11:36.435Z,68.59
2019-05-26T13:14:05.089Z,68.43
2019-05-26T13:16:35.821Z,68.47
2019-05-26T13:19:04.042Z,68.17
2019-05-26T13:21:32.551Z,68.15
2019-05-26T13:24:01.025Z,68.08
2019-05-26T13:26:29.533Z,67.80
2019-05-26T13:28:58.011Z,67.66
2019-05-26T13:31:26.756Z,68.07
2019-05-26T13:33:55.219Z,67.80
2019-05-26T13:36:23.677Z,68.12
2019-05-26T13:38:52.460Z,67.56
2019-05-26T13:41:20.945Z,67.15
2019-05-26T13:43:49.407Z,66.74
2019-05-26T13:46:17.939Z,67.04
2019-05-26T13:48:46.424Z,66.83
2019-05-26T13:51:14.910Z,66.81
2019-05-26T13:53:43.396Z,66.43
2019-05-26T13:56:11.857Z,66.33
2019-05-26T13:58:40.369Z,65.55
2019-05-26T14:01:08.870Z,65.30
2019-05-26T14:03:37.338Z,65.40
2019-05-26T14:06:05.872Z,65.33
2019-05-26T14:08:34.387Z,65.47
2019-05-26T14:11:02.873Z,65.73
2019-05-26T14:13:31.338Z,65.57
2019-05-26T14:15:59.830Z,65.57
2019-05-26T14:18:28.779Z,64.87
2019-05-26T14:20:57.188Z,64.61
2019-05-26T14:23:25.656Z,64.32
2019-05-26T14:25:54.142Z,64.43
2019-05-26T14:28:22.625Z,64.60
2019-05-26T14:30:51.103Z,64.96
2019-05-26T14:33:19.825Z,64.99
2019-05-26T14:35:48.304Z,64.59
2019-05-26T14:38:17.025Z,64.61
2019-05-26T14:40:45.798Z,64.22
2019-05-26T14:43:14.280Z,64.17
2019-05-26T14:45:52.860Z,63.91
2019-05-26T14:48:12.979Z,63.47
2019-05-26T14:50:41.473Z,63.87
2019-05-26T14:53:09.924Z,63.49
2019-05-26T14:55:38.406Z,63.79
2019-05-26T14:58:15.883Z,63.94
2019-05-26T15:00:37.140Z,63.48
2019-05-26T15:03:05.589Z,63.81
2019-05-26T15:05:34.375Z,63.76
2019-05-26T15:08:02.885Z,63.83
2019-05-26T15:10:31.634Z,63.97
2019-05-26T15:13:00.203Z,63.85
2019-05-26T15:15:28.669Z,63.84
2019-05-26T15:17:57.620Z,63.83
2019-05-26T15:20:26.087Z,63.29
2019-05-26T15:22:54.554Z,63.10
2019-05-26T15:25:23.037Z,63.22
2019-05-26T15:27:51.531Z,62.81
2019-05-26T15:30:20.015Z,63.03
2019-05-26T15:32:48.824Z,63.02
2019-05-26T15:35:17.308Z,62.91
2019-05-26T15:37:46.083Z,62.93
2019-05-26T15:40:14.577Z,62.75
2019-05-26T15:42:43.080Z,62.67
2019-05-26T15:45:11.640Z,62.48
2019-05-26T15:47:40.107Z,62.95
2019-05-26T15:50:08.682Z,63.11
2019-05-26T15:52:37.488Z,62.80
2019-05-26T15:55:06.300Z,62.99
2019-05-26T15:57:34.778Z,63.10
2019-05-26T16:00:03.277Z,63.07
2019-05-26T16:02:31.736Z,63.02
2019-05-26T16:05:00.220Z,62.84
2019-05-26T16:07:28.677Z,63.03
2019-05-26T16:09:57.159Z,63.24
2019-05-26T16:12:25.673Z,63.25
2019-05-26T16:14:54.161Z,63.02
2019-05-26T16:17:22.611Z,63.08
2019-05-26T16:19:51.854Z,62.95
2019-05-26T16:22:20.340Z,63.01
2019-05-26T16:24:48.850Z,63.13
2019-05-26T16:27:19.582Z,63.07
2019-05-26T16:29:47.747Z,63.28
2019-05-26T16:32:18.749Z,63.31
2019-05-26T16:34:46.405Z,63.25
2019-05-26T16:37:14.874Z,63.22
2019-05-26T16:39:43.357Z,63.15
2019-05-26T16:42:11.845Z,63.12
2019-05-26T16:44:40.328Z,63.03
2019-05-26T16:47:08.814Z,62.87
2019-05-26T16:49:37.274Z,62.90
2019-05-26T16:52:05.986Z,62.89
2019-05-26T16:54:34.520Z,63.03
2019-05-26T16:57:03.003Z,63.14
2019-05-26T16:59:31.460Z,63.83
2019-05-26T17:01:59.945Z,64.33
2019-05-26T17:04:28.443Z,64.71
2019-05-26T17:06:56.934Z,65.21
2019-05-26T17:09:25.428Z,65.43
2019-05-26T17:11:53.893Z,65.67
2019-05-26T17:14:22.357Z,65.78
2019-05-26T17:16:51.175Z,66.46
2019-05-26T17:19:19.909Z,66.47
2019-05-26T17:21:48.359Z,66.76
2019-05-26T17:24:16.827Z,66.99
2019-05-26T17:26:45.317Z,67.31
2019-05-26T17:29:14.076Z,67.90
2019-05-26T17:31:42.582Z,68.39
2019-05-26T17:34:11.092Z,68.22
2019-05-26T17:36:39.589Z,68.44
2019-05-26T17:39:08.457Z,68.85
2019-05-26T17:41:37.189Z,68.94
2019-05-26T17:44:05.940Z,69.85
2019-05-26T17:46:34.406Z,69.48
2019-05-26T17:49:02.917Z,70.12
2019-05-26T17:51:31.438Z,70.46
2019-05-26T17:53:59.885Z,70.92
2019-05-26T17:56:28.405Z,71.10
2019-05-26T17:58:56.897Z,71.91
2019-05-26T18:01:25.381Z,71.61
2019-05-26T18:03:53.865Z,71.92
2019-05-26T18:06:22.359Z,73.98
2019-05-26T18:08:50.872Z,73.19
2019-05-26T18:11:19.349Z,73.37
2019-05-26T18:13:47.829Z,74.80
2019-05-26T18:16:16.285Z,72.98
2019-05-26T18:18:44.802Z,73.88
2019-05-26T18:21:13.298Z,75.10
2019-05-26T18:23:42.330Z,73.95
2019-05-26T18:26:10.776Z,74.28
2019-05-26T18:28:39.273Z,74.84
2019-05-26T18:31:07.757Z,74.85
2019-05-26T18:33:36.239Z,74.83
2019-05-26T18:36:04.697Z,75.14
2019-05-26T18:38:33.193Z,75.42
2019-05-26T18:41:01.698Z,75.39
2019-05-26T18:43:30.429Z,75.40
2019-05-26T18:45:58.917Z,75.54
2019-05-26T18:48:27.420Z,75.99
2019-05-26T18:50:55.881Z,76.69
2019-05-26T18:53:24.683Z,77.19
2019-05-26T18:55:53.274Z,77.80
2019-05-26T18:58:21.765Z,77.40
2019-05-26T19:00:50.600Z,78.04
2019-05-26T19:03:19.249Z,77.35
2019-05-26T19:05:47.768Z,77.74
2019-05-26T19:08:16.241Z,80.04
2019-05-26T19:10:44.721Z,79.88
2019-05-26T19:13:13.218Z,78.58
2019-05-26T19:15:41.682Z,79.03
2019-05-26T19:18:19.298Z,78.72
2019-05-26T19:20:40.679Z,78.07
2019-05-26T19:23:09.174Z,81.21
2019-05-26T19:25:37.967Z,78.83
2019-05-26T19:28:06.481Z,78.64
2019-05-26T19:30:34.949Z,78.87
2019-05-26T19:33:03.683Z,79.55
2019-05-26T19:35:32.416Z,79.45
2019-05-26T19:38:01.006Z,78.89
2019-05-26T19:40:29.513Z,79.80
2019-05-26T19:42:58.268Z,79.49
2019-05-26T19:45:26.744Z,80.11
2019-05-26T19:47:55.210Z,80.67
2019-05-26T19:50:24.026Z,79.65
2019-05-26T19:52:52.515Z,79.55
2019-05-26T19:55:21.225Z,79.19
2019-05-26T19:57:49.683Z,80.31
2019-05-26T20:00:18.260Z,79.79
2019-05-26T20:02:46.787Z,79.47
2019-05-26T20:05:15.291Z,79.09
2019-05-26T20:07:43.783Z,78.90
2019-05-26T20:10:12.272Z,79.35
2019-05-26T20:12:40.741Z,79.62
2019-05-26T20:15:09.240Z,79.63
2019-05-26T20:17:37.774Z,79.33
2019-05-26T20:20:07.086Z,79.27
2019-05-26T20:22:35.584Z,79.38
2019-05-26T20:25:04.700Z,79.72
2019-05-26T20:27:33.142Z,79.37
2019-05-26T20:30:01.991Z,79.34
2019-05-26T20:32:30.540Z,79.49
2019-05-26T20:34:58.991Z,79.33
2019-05-26T20:37:27.476Z,80.06
2019-05-26T20:39:56.312Z,79.50
2019-05-26T20:42:24.848Z,79.47
2019-05-26T20:44:53.317Z,79.92
2019-05-26T20:47:21.776Z,79.54
2019-05-26T20:49:50.245Z,80.00
2019-05-26T20:52:18.726Z,80.34
2019-05-26T20:54:47.431Z,80.67
2019-05-26T20:57:15.925Z,80.07
2019-05-26T20:59:44.663Z,80.18
2019-05-26T21:02:13.768Z,80.37
2019-05-26T21:04:42.264Z,80.02
2019-05-26T21:07:10.764Z,80.00
2019-05-26T21:09:39.307Z,80.05
2019-05-26T21:12:07.800Z,80.67
2019-05-26T21:14:36.270Z,80.59
2019-05-26T21:17:04.722Z,80.56
2019-05-26T21:19:33.528Z,80.87
2019-05-26T21:22:02.035Z,80.62
2019-05-26T21:24:30.482Z,80.46
2019-05-26T21:26:59.303Z,81.08
2019-05-26T21:29:27.787Z,80.48
2019-05-26T21:31:56.540Z,80.71
2019-05-26T21:34:25.004Z,80.63
2019-05-26T21:36:53.709Z,81.15
2019-05-26T21:39:22.502Z,80.87
2019-05-26T21:41:51.027Z,81.09
2019-05-26T21:44:19.504Z,81.08
2019-05-26T21:46:48.030Z,81.78
2019-05-26T21:49:16.472Z,81.93
2019-05-26T21:51:44.943Z,81.70
2019-05-26T21:54:13.415Z,81.83
2019-05-26T21:56:41.891Z,82.35
2019-05-26T21:59:10.384Z,82.56
2019-05-26T22:01:38.976Z,82.39
2019-05-26T22:04:07.433Z,82.89
2019-05-26T22:06:35.920Z,82.62
2019-05-26T22:09:05.614Z,82.75
2019-05-26T22:11:34.333Z,82.47
2019-05-26T22:14:02.811Z,82.64
2019-05-26T22:16:31.293Z,83.12
2019-05-26T22:19:00.289Z,83.33
2019-05-26T22:21:29.171Z,83.30
2019-05-26T22:23:57.660Z,83.54
2019-05-26T22:26:26.120Z,83.79
2019-05-26T22:28:54.606Z,83.89
2019-05-26T22:31:23.111Z,83.39
2019-05-26T22:33:51.819Z,83.41
2019-05-26T22:36:20.277Z,83.55
2019-05-26T22:38:48.764Z,83.04
2019-05-26T22:41:17.253Z,83.60
2019-05-26T22:43:45.732Z,83.41
2019-05-26T22:46:14.460Z,84.04
2019-05-26T22:48:43.176Z,83.96
2019-05-26T22:51:11.672Z,83.34
2019-05-26T22:53:40.404Z,84.13
2019-05-26T22:56:08.880Z,83.97
2019-05-26T22:58:37.610Z,86.16
2019-05-26T23:01:06.086Z,84.32
2019-05-26T23:03:34.589Z,84.84
2019-05-26T23:06:03.203Z,84.72
2019-05-26T23:08:31.674Z,84.43
2019-05-26T23:11:00.164Z,84.03
2019-05-26T23:13:28.874Z,84.15
2019-05-26T23:15:57.675Z,84.33
2019-05-26T23:18:26.465Z,84.76
2019-05-26T23:20:54.997Z,84.60
2019-05-26T23:23:23.439Z,85.20
2019-05-26T23:25:51.938Z,84.77
2019-05-26T23:28:20.430Z,84.29
2019-05-26T23:30:48.990Z,84.54
2019-05-26T23:33:17.426Z,84.82
2019-05-26T23:35:45.909Z,85.12
2019-05-26T23:38:14.403Z,84.93
2019-05-26T23:40:43.215Z,84.44
2019-05-26T23:43:11.682Z,84.40
2019-05-26T23:45:40.469Z,84.97
2019-05-26T23:48:09.239Z,84.46
2019-05-26T23:50:37.740Z,84.24
2019-05-26T23:53:06.180Z,84.19
2019-05-26T23:55:35.009Z,84.78
2019-05-26T23:58:03.458Z,84.70
